sensor_id;sensor_type;location;lat;lon;timestamp;P1;durP1;ratioP1;P2;durP2;ratioP2
25915;SDS011;13719;48.188;11.618;2024-01-06T00:00:08;7.63;;;5.07;;
25915;SDS011;13719;48.188;11.618;2024-01-06T00:02:38;5.57;;;4.00;;
25915;SDS011;13719;48.188;11.618;2024-01-06T00:05:07;5.70;;;4.20;;
25915;SDS011;13719;48.188;11.618;2024-01-06T00:07:35;5.88;;;3.78;;
25915;SDS011;13719;48.188;11.618;2024-01-06T00:10:04;7.70;;;4.18;;
25915;SDS011;13719;48.188;11.618;2024-01-06T00:12:33;6.47;;;3.92;;
25915;SDS011;13719;48.188;11.618;2024-01-06T00:15:01;5.30;;;4.22;;
25915;SDS011;13719;48.188;11.618;2024-01-06T00:17:30;5.90;;;4.05;;
25915;SDS011;13719;48.188;11.618;2024-01-06T00:20:00;5.78;;;3.72;;
25915;SDS011;13719;48.188;11.618;2024-01-06T00:22:29;6.32;;;3.90;;
25915;SDS011;13719;48.188;11.618;2024-01-06T00:24:57;5.55;;;3.85;;
25915;SDS011;13719;48.188;11.618;2024-01-06T00:27:26;4.13;;;3.22;;
25915;SDS011;13719;48.188;11.618;2024-01-06T00:29:54;4.53;;;3.42;;
25915;SDS011;13719;48.188;11.618;2024-01-06T00:32:22;5.45;;;3.58;;
25915;SDS011;13719;48.188;11.618;2024-01-06T00:34:51;3.80;;;3.08;;
25915;SDS011;13719;48.188;11.618;2024-01-06T00:37:21;6.60;;;3.67;;
25915;SDS011;13719;48.188;11.618;2024-01-06T00:39:49;5.38;;;3.33;;
25915;SDS011;13719;48.188;11.618;2024-01-06T00:42:18;5.47;;;3.25;;
25915;SDS011;13719;48.188;11.618;2024-01-06T00:44:46;4.18;;;3.22;;
25915;SDS011;13719;48.188;11.618;2024-01-06T00:47:15;3.95;;;3.22;;
25915;SDS011;13719;48.188;11.618;2024-01-06T00:49:43;3.33;;;2.90;;
25915;SDS011;13719;48.188;11.618;2024-01-06T00:52:12;4.25;;;3.30;;
25915;SDS011;13719;48.188;11.618;2024-01-06T00:54:41;5.45;;;3.17;;
25915;SDS011;13719;48.188;11.618;2024-01-06T00:57:10;4.10;;;3.35;;
25915;SDS011;13719;48.188;11.618;2024-01-06T00:59:38;5.22;;;3.30;;
25915;SDS011;13719;48.188;11.618;2024-01-06T01:02:07;3.60;;;3.15;;
25915;SDS011;13719;48.188;11.618;2024-01-06T01:04:35;4.32;;;2.63;;
25915;SDS011;13719;48.188;11.618;2024-01-06T01:07:04;4.05;;;2.88;;
25915;SDS011;13719;48.188;11.618;2024-01-06T01:09:32;4.40;;;3.10;;
25915;SDS011;13719;48.188;11.618;2024-01-06T01:12:02;5.63;;;3.67;;
25915;SDS011;13719;48.188;11.618;2024-01-06T01:14:30;5.20;;;4.00;;
25915;SDS011;13719;48.188;11.618;2024-01-06T01:16:59;6.70;;;4.20;;
25915;SDS011;13719;48.188;11.618;2024-01-06T01:19:27;5.38;;;3.83;;
25915;SDS011;13719;48.188;11.618;2024-01-06T01:21:56;6.28;;;4.20;;
25915;SDS011;13719;48.188;11.618;2024-01-06T01:24:24;5.78;;;4.22;;
25915;SDS011;13719;48.188;11.618;2024-01-06T01:26:53;5.22;;;3.70;;
25915;SDS011;13719;48.188;11.618;2024-01-06T01:29:22;6.45;;;4.03;;
25915;SDS011;13719;48.188;11.618;2024-01-06T01:31:51;6.25;;;4.00;;
25915;SDS011;13719;48.188;11.618;2024-01-06T01:34:19;6.07;;;3.63;;
25915;SDS011;13719;48.188;11.618;2024-01-06T01:36:48;5.63;;;3.33;;
25915;SDS011;13719;48.188;11.618;2024-01-06T01:39:17;4.50;;;3.25;;
25915;SDS011;13719;48.188;11.618;2024-01-06T01:41:45;4.78;;;3.28;;
25915;SDS011;13719;48.188;11.618;2024-01-06T01:44:14;4.85;;;3.00;;
25915;SDS011;13719;48.188;11.618;2024-01-06T01:46:44;4.63;;;3.08;;
25915;SDS011;13719;48.188;11.618;2024-01-06T01:49:12;4.80;;;3.10;;
25915;SDS011;13719;48.188;11.618;2024-01-06T01:51:41;4.07;;;2.75;;
25915;SDS011;13719;48.188;11.618;2024-01-06T01:54:10;4.95;;;3.10;;
25915;SDS011;13719;48.188;11.618;2024-01-06T01:56:39;4.95;;;2.80;;
25915;SDS011;13719;48.188;11.618;2024-01-06T01:59:09;4.03;;;2.95;;
25915;SDS011;13719;48.188;11.618;2024-01-06T02:01:38;4.00;;;2.45;;
25915;SDS011;13719;48.188;11.618;2024-01-06T02:04:08;4.60;;;2.75;;
25915;SDS011;13719;48.188;11.618;2024-01-06T02:06:36;3.53;;;2.80;;
25915;SDS011;13719;48.188;11.618;2024-01-06T02:09:05;4.05;;;2.95;;
25915;SDS011;13719;48.188;11.618;2024-01-06T02:11:33;4.13;;;2.90;;
25915;SDS011;13719;48.188;11.618;2024-01-06T02:14:03;2.95;;;2.38;;
25915;SDS011;13719;48.188;11.618;2024-01-06T02:16:31;5.45;;;2.63;;
25915;SDS011;13719;48.188;11.618;2024-01-06T02:18:59;3.33;;;2.63;;
25915;SDS011;13719;48.188;11.618;2024-01-06T02:21:29;4.50;;;2.75;;
25915;SDS011;13719;48.188;11.618;2024-01-06T02:24:01;3.88;;;2.67;;
25915;SDS011;13719;48.188;11.618;2024-01-06T02:26:29;5.20;;;2.60;;
25915;SDS011;13719;48.188;11.618;2024-01-06T02:28:57;4.25;;;2.92;;
25915;SDS011;13719;48.188;11.618;2024-01-06T02:31:26;4.07;;;2.70;;
25915;SDS011;13719;48.188;11.618;2024-01-06T02:33:54;4.63;;;3.40;;
25915;SDS011;13719;48.188;11.618;2024-01-06T02:36:23;3.50;;;2.53;;
25915;SDS011;13719;48.188;11.618;2024-01-06T02:38:51;4.95;;;3.10;;
25915;SDS011;13719;48.188;11.618;2024-01-06T02:41:21;3.85;;;2.67;;
25915;SDS011;13719;48.188;11.618;2024-01-06T02:43:49;4.35;;;2.72;;
25915;SDS011;13719;48.188;11.618;2024-01-06T02:46:18;4.55;;;3.40;;
25915;SDS011;13719;48.188;11.618;2024-01-06T02:48:46;5.28;;;3.85;;
25915;SDS011;13719;48.188;11.618;2024-01-06T02:51:14;4.82;;;3.55;;
25915;SDS011;13719;48.188;11.618;2024-01-06T02:53:43;4.85;;;2.85;;
25915;SDS011;13719;48.188;11.618;2024-01-06T02:56:11;4.32;;;3.08;;
25915;SDS011;13719;48.188;11.618;2024-01-06T02:58:41;3.45;;;2.53;;
25915;SDS011;13719;48.188;11.618;2024-01-06T03:01:11;3.05;;;2.58;;
25915;SDS011;13719;48.188;11.618;2024-01-06T03:03:39;3.45;;;2.22;;
25915;SDS011;13719;48.188;11.618;2024-01-06T03:06:08;4.10;;;2.50;;
25915;SDS011;13719;48.188;11.618;2024-01-06T03:08:36;3.78;;;2.55;;
25915;SDS011;13719;48.188;11.618;2024-01-06T03:11:05;3.55;;;2.80;;
25915;SDS011;13719;48.188;11.618;2024-01-06T03:13:33;3.33;;;2.50;;
25915;SDS011;13719;48.188;11.618;2024-01-06T03:16:04;4.70;;;2.85;;
25915;SDS011;13719;48.188;11.618;2024-01-06T03:18:32;4.57;;;2.80;;
25915;SDS011;13719;48.188;11.618;2024-01-06T03:21:01;3.15;;;2.50;;
25915;SDS011;13719;48.188;11.618;2024-01-06T03:23:30;3.72;;;2.80;;
25915;SDS011;13719;48.188;11.618;2024-01-06T03:25:58;3.78;;;2.90;;
25915;SDS011;13719;48.188;11.618;2024-01-06T03:28:26;3.83;;;2.72;;
25915;SDS011;13719;48.188;11.618;2024-01-06T03:30:55;3.00;;;2.30;;
25915;SDS011;13719;48.188;11.618;2024-01-06T03:33:24;4.75;;;3.30;;
25915;SDS011;13719;48.188;11.618;2024-01-06T03:35:53;2.95;;;2.65;;
25915;SDS011;13719;48.188;11.618;2024-01-06T03:38:21;3.67;;;2.90;;
25915;SDS011;13719;48.188;11.618;2024-01-06T03:40:50;3.35;;;2.40;;
25915;SDS011;13719;48.188;11.618;2024-01-06T03:43:18;3.83;;;2.78;;
25915;SDS011;13719;48.188;11.618;2024-01-06T03:45:46;3.03;;;2.47;;
25915;SDS011;13719;48.188;11.618;2024-01-06T03:48:15;3.08;;;2.20;;
25915;SDS011;13719;48.188;11.618;2024-01-06T03:50:45;3.05;;;2.30;;
25915;SDS011;13719;48.188;11.618;2024-01-06T03:53:13;3.70;;;2.75;;
25915;SDS011;13719;48.188;11.618;2024-01-06T03:55:41;2.75;;;2.17;;
25915;SDS011;13719;48.188;11.618;2024-01-06T03:58:10;3.58;;;2.30;;
25915;SDS011;13719;48.188;11.618;2024-01-06T04:00:38;3.15;;;2.28;;
25915;SDS011;13719;48.188;11.618;2024-01-06T04:03:07;2.55;;;2.22;;
25915;SDS011;13719;48.188;11.618;2024-01-06T04:05:35;2.17;;;1.92;;
25915;SDS011;13719;48.188;11.618;2024-01-06T04:08:05;4.10;;;2.03;;
25915;SDS011;13719;48.188;11.618;2024-01-06T04:10:34;2.05;;;1.73;;
25915;SDS011;13719;48.188;11.618;2024-01-06T04:13:02;1.77;;;1.65;;
25915;SDS011;13719;48.188;11.618;2024-01-06T04:15:31;4.70;;;1.77;;
25915;SDS011;13719;48.188;11.618;2024-01-06T04:18:01;1.65;;;1.55;;
25915;SDS011;13719;48.188;11.618;2024-01-06T04:20:30;2.15;;;1.60;;
25915;SDS011;13719;48.188;11.618;2024-01-06T04:22:59;1.50;;;1.35;;
25915;SDS011;13719;48.188;11.618;2024-01-06T04:25:28;2.72;;;1.42;;
25915;SDS011;13719;48.188;11.618;2024-01-06T04:27:57;1.60;;;1.30;;
25915;SDS011;13719;48.188;11.618;2024-01-06T04:30:25;2.33;;;1.58;;
25915;SDS011;13719;48.188;11.618;2024-01-06T04:32:54;1.65;;;1.45;;
25915;SDS011;13719;48.188;11.618;2024-01-06T04:35:23;2.25;;;1.52;;
25915;SDS011;13719;48.188;11.618;2024-01-06T04:37:52;1.10;;;0.90;;
25915;SDS011;13719;48.188;11.618;2024-01-06T04:40:20;1.23;;;1.10;;
25915;SDS011;13719;48.188;11.618;2024-01-06T04:42:50;1.20;;;1.00;;
25915;SDS011;13719;48.188;11.618;2024-01-06T04:45:18;1.85;;;1.00;;
25915;SDS011;13719;48.188;11.618;2024-01-06T04:47:50;0.82;;;0.70;;
25915;SDS011;13719;48.188;11.618;2024-01-06T04:50:19;0.90;;;0.80;;
25915;SDS011;13719;48.188;11.618;2024-01-06T04:52:47;0.60;;;0.60;;
25915;SDS011;13719;48.188;11.618;2024-01-06T04:55:16;0.70;;;0.70;;
25915;SDS011;13719;48.188;11.618;2024-01-06T04:57:44;1.35;;;0.50;;
25915;SDS011;13719;48.188;11.618;2024-01-06T05:00:14;0.60;;;0.60;;
25915;SDS011;13719;48.188;11.618;2024-01-06T05:02:43;0.50;;;0.47;;
25915;SDS011;13719;48.188;11.618;2024-01-06T05:05:11;0.63;;;0.50;;
25915;SDS011;13719;48.188;11.618;2024-01-06T05:07:40;0.82;;;0.50;;
25915;SDS011;13719;48.188;11.618;2024-01-06T05:10:08;0.50;;;0.50;;
25915;SDS011;13719;48.188;11.618;2024-01-06T05:12:37;0.55;;;0.55;;
25915;SDS011;13719;48.188;11.618;2024-01-06T05:15:05;0.95;;;0.50;;
25915;SDS011;13719;48.188;11.618;2024-01-06T05:17:35;0.50;;;0.50;;
25915;SDS011;13719;48.188;11.618;2024-01-06T05:20:04;0.40;;;0.40;;
25915;SDS011;13719;48.188;11.618;2024-01-06T05:22:33;0.63;;;0.63;;
25915;SDS011;13719;48.188;11.618;2024-01-06T05:25:01;0.65;;;0.60;;
25915;SDS011;13719;48.188;11.618;2024-01-06T05:27:30;0.50;;;0.50;;
25915;SDS011;13719;48.188;11.618;2024-01-06T05:29:58;0.40;;;0.40;;
25915;SDS011;13719;48.188;11.618;2024-01-06T05:32:26;0.52;;;0.50;;
25915;SDS011;13719;48.188;11.618;2024-01-06T05:34:56;0.57;;;0.52;;
25915;SDS011;13719;48.188;11.618;2024-01-06T05:37:25;0.60;;;0.60;;
25915;SDS011;13719;48.188;11.618;2024-01-06T05:39:53;0.50;;;0.50;;
25915;SDS011;13719;48.188;11.618;2024-01-06T05:42:22;0.50;;;0.50;;
25915;SDS011;13719;48.188;11.618;2024-01-06T05:44:50;0.50;;;0.50;;
25915;SDS011;13719;48.188;11.618;2024-01-06T05:47:19;1.00;;;0.50;;
25915;SDS011;13719;48.188;11.618;2024-01-06T05:49:47;0.60;;;0.60;;
25915;SDS011;13719;48.188;11.618;2024-01-06T05:52:17;0.40;;;0.40;;
25915;SDS011;13719;48.188;11.618;2024-01-06T05:54:45;0.50;;;0.50;;
25915;SDS011;13719;48.188;11.618;2024-01-06T05:57:14;0.63;;;0.50;;
25915;SDS011;13719;48.188;11.618;2024-01-06T05:59:42;0.57;;;0.50;;
25915;SDS011;13719;48.188;11.618;2024-01-06T06:02:11;1.35;;;0.77;;
25915;SDS011;13719;48.188;11.618;2024-01-06T06:04:40;0.77;;;0.75;;
25915;SDS011;13719;48.188;11.618;2024-01-06T06:07:08;0.90;;;0.80;;
25915;SDS011;13719;48.188;11.618;2024-01-06T06:09:38;0.70;;;0.70;;
25915;SDS011;13719;48.188;11.618;2024-01-06T06:12:07;0.65;;;0.60;;
25915;SDS011;13719;48.188;11.618;2024-01-06T06:14:35;0.90;;;0.90;;
25915;SDS011;13719;48.188;11.618;2024-01-06T06:17:04;2.08;;;1.08;;
25915;SDS011;13719;48.188;11.618;2024-01-06T06:19:32;1.58;;;0.90;;
25915;SDS011;13719;48.188;11.618;2024-01-06T06:22:01;1.63;;;1.30;;
25915;SDS011;13719;48.188;11.618;2024-01-06T06:24:29;1.35;;;1.02;;
25915;SDS011;13719;48.188;11.618;2024-01-06T06:26:59;0.80;;;0.75;;
25915;SDS011;13719;48.188;11.618;2024-01-06T06:29:27;3.03;;;1.10;;
25915;SDS011;13719;48.188;11.618;2024-01-06T06:31:56;1.27;;;0.98;;
25915;SDS011;13719;48.188;11.618;2024-01-06T06:34:25;1.38;;;1.00;;
25915;SDS011;13719;48.188;11.618;2024-01-06T06:36:54;1.10;;;1.00;;
25915;SDS011;13719;48.188;11.618;2024-01-06T06:39:22;1.33;;;1.08;;
25915;SDS011;13719;48.188;11.618;2024-01-06T06:41:51;1.65;;;0.90;;
25915;SDS011;13719;48.188;11.618;2024-01-06T06:44:20;2.13;;;1.13;;
25915;SDS011;13719;48.188;11.618;2024-01-06T06:46:49;1.23;;;1.00;;
25915;SDS011;13719;48.188;11.618;2024-01-06T06:49:18;3.33;;;1.25;;
25915;SDS011;13719;48.188;11.618;2024-01-06T06:51:47;1.27;;;1.02;;
25915;SDS011;13719;48.188;11.618;2024-01-06T06:54:16;2.25;;;1.00;;
25915;SDS011;13719;48.188;11.618;2024-01-06T06:56:45;2.70;;;0.95;;
25915;SDS011;13719;48.188;11.618;2024-01-06T06:59:13;1.73;;;1.05;;
25915;SDS011;13719;48.188;11.618;2024-01-06T07:01:43;1.75;;;0.90;;
25915;SDS011;13719;48.188;11.618;2024-01-06T07:04:11;1.80;;;1.00;;
25915;SDS011;13719;48.188;11.618;2024-01-06T07:06:40;2.35;;;1.15;;
25915;SDS011;13719;48.188;11.618;2024-01-06T07:09:08;2.90;;;1.08;;
25915;SDS011;13719;48.188;11.618;2024-01-06T07:11:37;1.60;;;1.30;;
25915;SDS011;13719;48.188;11.618;2024-01-06T07:14:05;2.08;;;1.42;;
25915;SDS011;13719;48.188;11.618;2024-01-06T07:16:33;1.85;;;1.27;;
25915;SDS011;13719;48.188;11.618;2024-01-06T07:19:03;4.80;;;1.45;;
25915;SDS011;13719;48.188;11.618;2024-01-06T07:21:32;0.88;;;0.88;;
25915;SDS011;13719;48.188;11.618;2024-01-06T07:24:00;3.15;;;1.48;;
25915;SDS011;13719;48.188;11.618;2024-01-06T07:26:29;1.88;;;1.42;;
25915;SDS011;13719;48.188;11.618;2024-01-06T07:28:57;5.93;;;1.65;;
25915;SDS011;13719;48.188;11.618;2024-01-06T07:31:26;2.90;;;1.48;;
25915;SDS011;13719;48.188;11.618;2024-01-06T07:33:54;1.98;;;1.40;;
25915;SDS011;13719;48.188;11.618;2024-01-06T07:36:25;1.70;;;1.30;;
25915;SDS011;13719;48.188;11.618;2024-01-06T07:38:53;3.50;;;1.05;;
25915;SDS011;13719;48.188;11.618;2024-01-06T07:41:21;1.42;;;1.17;;
25915;SDS011;13719;48.188;11.618;2024-01-06T07:43:50;1.90;;;1.10;;
25915;SDS011;13719;48.188;11.618;2024-01-06T07:46:18;2.20;;;1.00;;
25915;SDS011;13719;48.188;11.618;2024-01-06T07:48:47;0.93;;;0.82;;
25915;SDS011;13719;48.188;11.618;2024-01-06T07:51:15;2.83;;;1.40;;
25915;SDS011;13719;48.188;11.618;2024-01-06T07:53:45;1.20;;;0.90;;
25915;SDS011;13719;48.188;11.618;2024-01-06T07:56:14;2.25;;;1.10;;
25915;SDS011;13719;48.188;11.618;2024-01-06T07:58:42;1.50;;;1.10;;
25915;SDS011;13719;48.188;11.618;2024-01-06T08:01:10;1.23;;;1.10;;
25915;SDS011;13719;48.188;11.618;2024-01-06T08:03:39;2.83;;;1.27;;
25915;SDS011;13719;48.188;11.618;2024-01-06T08:06:08;2.13;;;1.17;;
25915;SDS011;13719;48.188;11.618;2024-01-06T08:08:36;1.48;;;1.10;;
25915;SDS011;13719;48.188;11.618;2024-01-06T08:11:06;3.75;;;1.23;;
25915;SDS011;13719;48.188;11.618;2024-01-06T08:13:35;1.80;;;1.23;;
25915;SDS011;13719;48.188;11.618;2024-01-06T08:16:03;1.67;;;1.15;;
25915;SDS011;13719;48.188;11.618;2024-01-06T08:18:32;1.92;;;1.38;;
25915;SDS011;13719;48.188;11.618;2024-01-06T08:21:00;1.88;;;1.30;;
25915;SDS011;13719;48.188;11.618;2024-01-06T08:23:29;1.55;;;1.23;;
25915;SDS011;13719;48.188;11.618;2024-01-06T08:25:57;2.05;;;1.10;;
25915;SDS011;13719;48.188;11.618;2024-01-06T08:28:27;2.35;;;1.15;;
25915;SDS011;13719;48.188;11.618;2024-01-06T08:30:56;2.83;;;1.25;;
25915;SDS011;13719;48.188;11.618;2024-01-06T08:33:24;2.47;;;1.15;;
25915;SDS011;13719;48.188;11.618;2024-01-06T08:35:53;1.30;;;1.17;;
25915;SDS011;13719;48.188;11.618;2024-01-06T08:38:21;3.65;;;1.38;;
25915;SDS011;13719;48.188;11.618;2024-01-06T08:40:49;2.97;;;1.10;;
25915;SDS011;13719;48.188;11.618;2024-01-06T08:43:20;2.35;;;1.30;;
25915;SDS011;13719;48.188;11.618;2024-01-06T08:45:49;2.03;;;1.15;;
25915;SDS011;13719;48.188;11.618;2024-01-06T08:48:18;3.33;;;1.42;;
25915;SDS011;13719;48.188;11.618;2024-01-06T08:50:48;3.33;;;1.30;;
25915;SDS011;13719;48.188;11.618;2024-01-06T08:53:17;1.30;;;1.02;;
25915;SDS011;13719;48.188;11.618;2024-01-06T08:55:45;1.90;;;1.10;;
25915;SDS011;13719;48.188;11.618;2024-01-06T08:58:14;2.22;;;1.13;;
25915;SDS011;13719;48.188;11.618;2024-01-06T09:00:42;1.08;;;0.98;;
25915;SDS011;13719;48.188;11.618;2024-01-06T09:03:12;2.70;;;1.15;;
25915;SDS011;13719;48.188;11.618;2024-01-06T09:05:41;1.20;;;0.90;;
25915;SDS011;13719;48.188;11.618;2024-01-06T09:08:09;1.40;;;1.17;;
25915;SDS011;13719;48.188;11.618;2024-01-06T09:10:37;1.90;;;0.90;;
25915;SDS011;13719;48.188;11.618;2024-01-06T09:13:06;0.80;;;0.80;;
25915;SDS011;13719;48.188;11.618;2024-01-06T09:15:34;1.17;;;1.00;;
25915;SDS011;13719;48.188;11.618;2024-01-06T09:18:03;1.23;;;0.88;;
25915;SDS011;13719;48.188;11.618;2024-01-06T09:20:33;1.85;;;0.95;;
25915;SDS011;13719;48.188;11.618;2024-01-06T09:23:01;1.38;;;0.85;;
25915;SDS011;13719;48.188;11.618;2024-01-06T09:25:30;2.53;;;0.98;;
25915;SDS011;13719;48.188;11.618;2024-01-06T09:27:58;2.35;;;0.70;;
25915;SDS011;13719;48.188;11.618;2024-01-06T09:30:27;3.75;;;0.90;;
25915;SDS011;13719;48.188;11.618;2024-01-06T09:32:55;2.10;;;1.02;;
25915;SDS011;13719;48.188;11.618;2024-01-06T09:35:24;1.90;;;0.90;;
25915;SDS011;13719;48.188;11.618;2024-01-06T09:37:54;2.50;;;0.88;;
25915;SDS011;13719;48.188;11.618;2024-01-06T09:40:23;1.52;;;0.98;;
25915;SDS011;13719;48.188;11.618;2024-01-06T09:42:52;1.35;;;0.90;;
25915;SDS011;13719;48.188;11.618;2024-01-06T09:45:20;1.10;;;0.90;;
25915;SDS011;13719;48.188;11.618;2024-01-06T09:47:50;1.85;;;1.13;;
25915;SDS011;13719;48.188;11.618;2024-01-06T09:50:19;2.35;;;1.20;;
25915;SDS011;13719;48.188;11.618;2024-01-06T09:52:48;1.27;;;1.10;;
25915;SDS011;13719;48.188;11.618;2024-01-06T09:55:23;1.92;;;1.10;;
25915;SDS011;13719;48.188;11.618;2024-01-06T09:57:53;1.33;;;0.95;;
25915;SDS011;13719;48.188;11.618;2024-01-06T10:00:22;2.40;;;0.90;;
25915;SDS011;13719;48.188;11.618;2024-01-06T10:02:50;1.02;;;0.90;;
25915;SDS011;13719;48.188;11.618;2024-01-06T10:05:19;2.08;;;0.90;;
25915;SDS011;13719;48.188;11.618;2024-01-06T10:07:47;3.38;;;1.10;;
25915;SDS011;13719;48.188;11.618;2024-01-06T10:10:16;1.85;;;1.20;;
25915;SDS011;13719;48.188;11.618;2024-01-06T10:12:47;2.70;;;1.27;;
25915;SDS011;13719;48.188;11.618;2024-01-06T10:15:16;3.10;;;1.27;;
25915;SDS011;13719;48.188;11.618;2024-01-06T10:17:44;1.98;;;1.20;;
25915;SDS011;13719;48.188;11.618;2024-01-06T10:20:13;2.72;;;1.20;;
25915;SDS011;13719;48.188;11.618;2024-01-06T10:22:41;4.88;;;1.77;;
25915;SDS011;13719;48.188;11.618;2024-01-06T10:25:11;1.85;;;1.58;;
25915;SDS011;13719;48.188;11.618;2024-01-06T10:27:40;2.65;;;1.40;;
25915;SDS011;13719;48.188;11.618;2024-01-06T10:30:10;4.05;;;1.50;;
25915;SDS011;13719;48.188;11.618;2024-01-06T10:32:41;1.42;;;1.25;;
25915;SDS011;13719;48.188;11.618;2024-01-06T10:35:09;1.33;;;1.23;;
25915;SDS011;13719;48.188;11.618;2024-01-06T10:37:38;1.30;;;1.20;;
25915;SDS011;13719;48.188;11.618;2024-01-06T10:40:10;1.50;;;1.23;;
25915;SDS011;13719;48.188;11.618;2024-01-06T10:42:38;3.10;;;1.42;;
25915;SDS011;13719;48.188;11.618;2024-01-06T10:45:07;1.50;;;1.15;;
25915;SDS011;13719;48.188;11.618;2024-01-06T10:47:38;2.03;;;1.35;;
25915;SDS011;13719;48.188;11.618;2024-01-06T10:50:07;4.20;;;1.60;;
25915;SDS011;13719;48.188;11.618;2024-01-06T10:52:36;3.35;;;1.77;;
25915;SDS011;13719;48.188;11.618;2024-01-06T10:55:06;2.35;;;1.48;;
25915;SDS011;13719;48.188;11.618;2024-01-06T10:57:34;3.92;;;2.03;;
25915;SDS011;13719;48.188;11.618;2024-01-06T11:00:07;3.65;;;1.90;;
25915;SDS011;13719;48.188;11.618;2024-01-06T11:02:38;2.65;;;1.80;;
25915;SDS011;13719;48.188;11.618;2024-01-06T11:05:08;2.97;;;1.77;;
25915;SDS011;13719;48.188;11.618;2024-01-06T11:07:38;3.35;;;1.83;;
25915;SDS011;13719;48.188;11.618;2024-01-06T11:10:09;6.03;;;1.95;;
25915;SDS011;13719;48.188;11.618;2024-01-06T11:12:39;2.78;;;1.70;;
25915;SDS011;13719;48.188;11.618;2024-01-06T11:15:08;2.20;;;1.50;;
25915;SDS011;13719;48.188;11.618;2024-01-06T11:17:50;4.53;;;1.75;;
25915;SDS011;13719;48.188;11.618;2024-01-06T11:20:20;2.20;;;1.65;;
25915;SDS011;13719;48.188;11.618;2024-01-06T11:22:49;2.03;;;1.65;;
25915;SDS011;13719;48.188;11.618;2024-01-06T11:25:18;4.28;;;1.77;;
25915;SDS011;13719;48.188;11.618;2024-01-06T11:27:47;3.53;;;1.73;;
25915;SDS011;13719;48.188;11.618;2024-01-06T11:30:19;3.00;;;1.95;;
25915;SDS011;13719;48.188;11.618;2024-01-06T11:32:47;2.05;;;1.70;;
25915;SDS011;13719;48.188;11.618;2024-01-06T11:35:17;2.47;;;1.70;;
25915;SDS011;13719;48.188;11.618;2024-01-06T11:37:53;3.20;;;1.98;;
25915;SDS011;13719;48.188;11.618;2024-01-06T11:40:24;2.67;;;1.85;;
25915;SDS011;13719;48.188;11.618;2024-01-06T11:43:02;2.47;;;2.03;;
25915;SDS011;13719;48.188;11.618;2024-01-06T11:45:32;3.00;;;1.70;;
25915;SDS011;13719;48.188;11.618;2024-01-06T11:48:01;2.95;;;1.98;;
25915;SDS011;13719;48.188;11.618;2024-01-06T11:50:32;2.53;;;1.90;;
25915;SDS011;13719;48.188;11.618;2024-01-06T11:53:01;2.20;;;1.90;;
25915;SDS011;13719;48.188;11.618;2024-01-06T11:55:29;2.72;;;1.92;;
25915;SDS011;13719;48.188;11.618;2024-01-06T11:57:59;4.15;;;2.05;;
25915;SDS011;13719;48.188;11.618;2024-01-06T12:00:28;3.80;;;1.90;;
25915;SDS011;13719;48.188;11.618;2024-01-06T12:02:57;2.45;;;1.75;;
25915;SDS011;13719;48.188;11.618;2024-01-06T12:05:26;3.05;;;2.00;;
25915;SDS011;13719;48.188;11.618;2024-01-06T12:07:57;6.88;;;2.50;;
25915;SDS011;13719;48.188;11.618;2024-01-06T12:10:26;5.30;;;2.35;;
25915;SDS011;13719;48.188;11.618;2024-01-06T12:12:58;3.40;;;2.03;;
25915;SDS011;13719;48.188;11.618;2024-01-06T12:15:27;7.35;;;2.40;;
25915;SDS011;13719;48.188;11.618;2024-01-06T12:17:55;2.75;;;1.95;;
25915;SDS011;13719;48.188;11.618;2024-01-06T12:20:24;3.42;;;2.40;;
25915;SDS011;13719;48.188;11.618;2024-01-06T12:22:56;5.45;;;2.40;;
25915;SDS011;13719;48.188;11.618;2024-01-06T12:25:27;5.53;;;2.40;;
25915;SDS011;13719;48.188;11.618;2024-01-06T12:28:05;4.85;;;2.10;;
25915;SDS011;13719;48.188;11.618;2024-01-06T12:30:33;3.50;;;2.10;;
25915;SDS011;13719;48.188;11.618;2024-01-06T12:33:03;4.00;;;2.20;;
25915;SDS011;13719;48.188;11.618;2024-01-06T12:35:32;3.80;;;1.67;;
25915;SDS011;13719;48.188;11.618;2024-01-06T12:38:03;3.60;;;2.30;;
25915;SDS011;13719;48.188;11.618;2024-01-06T12:40:34;3.72;;;2.28;;
25915;SDS011;13719;48.188;11.618;2024-01-06T12:43:03;5.07;;;2.38;;
25915;SDS011;13719;48.188;11.618;2024-01-06T12:45:33;4.15;;;2.17;;
25915;SDS011;13719;48.188;11.618;2024-01-06T12:48:01;3.03;;;2.03;;
25915;SDS011;13719;48.188;11.618;2024-01-06T12:50:30;3.55;;;2.03;;
25915;SDS011;13719;48.188;11.618;2024-01-06T12:52:58;7.72;;;2.15;;
25915;SDS011;13719;48.188;11.618;2024-01-06T12:55:28;3.28;;;2.15;;
25915;SDS011;13719;48.188;11.618;2024-01-06T12:57:56;4.05;;;1.90;;
25915;SDS011;13719;48.188;11.618;2024-01-06T13:00:27;3.75;;;2.25;;
25915;SDS011;13719;48.188;11.618;2024-01-06T13:02:59;3.67;;;2.10;;
25915;SDS011;13719;48.188;11.618;2024-01-06T13:05:27;3.08;;;2.15;;
25915;SDS011;13719;48.188;11.618;2024-01-06T13:07:56;3.00;;;2.10;;
25915;SDS011;13719;48.188;11.618;2024-01-06T13:10:24;4.75;;;2.10;;
25915;SDS011;13719;48.188;11.618;2024-01-06T13:12:54;5.32;;;2.50;;
25915;SDS011;13719;48.188;11.618;2024-01-06T13:15:23;3.08;;;2.20;;
25915;SDS011;13719;48.188;11.618;2024-01-06T13:17:51;5.45;;;2.63;;
25915;SDS011;13719;48.188;11.618;2024-01-06T13:20:20;6.53;;;3.33;;
25915;SDS011;13719;48.188;11.618;2024-01-06T13:22:48;4.63;;;2.95;;
25915;SDS011;13719;48.188;11.618;2024-01-06T13:25:17;6.03;;;2.95;;
25915;SDS011;13719;48.188;11.618;2024-01-06T13:27:46;6.55;;;2.88;;
25915;SDS011;13719;48.188;11.618;2024-01-06T13:30:16;4.20;;;2.30;;
25915;SDS011;13719;48.188;11.618;2024-01-06T13:32:46;2.90;;;2.40;;
25915;SDS011;13719;48.188;11.618;2024-01-06T13:35:17;3.80;;;2.50;;
25915;SDS011;13719;48.188;11.618;2024-01-06T13:37:45;3.85;;;2.47;;
25915;SDS011;13719;48.188;11.618;2024-01-06T13:40:17;2.63;;;2.20;;
25915;SDS011;13719;48.188;11.618;2024-01-06T13:42:47;2.92;;;2.13;;
25915;SDS011;13719;48.188;11.618;2024-01-06T13:45:17;2.92;;;2.00;;
25915;SDS011;13719;48.188;11.618;2024-01-06T13:47:45;3.88;;;1.88;;
25915;SDS011;13719;48.188;11.618;2024-01-06T13:50:15;2.20;;;2.00;;
25915;SDS011;13719;48.188;11.618;2024-01-06T13:52:44;3.10;;;2.03;;
25915;SDS011;13719;48.188;11.618;2024-01-06T13:55:12;2.67;;;1.90;;
25915;SDS011;13719;48.188;11.618;2024-01-06T13:57:41;3.38;;;2.13;;
25915;SDS011;13719;48.188;11.618;2024-01-06T14:00:10;4.47;;;2.10;;
25915;SDS011;13719;48.188;11.618;2024-01-06T14:02:46;2.17;;;1.95;;
25915;SDS011;13719;48.188;11.618;2024-01-06T14:05:15;3.92;;;2.10;;
25915;SDS011;13719;48.188;11.618;2024-01-06T14:07:43;2.92;;;1.80;;
25915;SDS011;13719;48.188;11.618;2024-01-06T14:10:14;3.33;;;2.30;;
25915;SDS011;13719;48.188;11.618;2024-01-06T14:12:43;3.35;;;1.98;;
25915;SDS011;13719;48.188;11.618;2024-01-06T14:15:11;4.60;;;1.85;;
25915;SDS011;13719;48.188;11.618;2024-01-06T14:17:40;4.28;;;2.10;;
25915;SDS011;13719;48.188;11.618;2024-01-06T14:20:17;3.58;;;2.15;;
25915;SDS011;13719;48.188;11.618;2024-01-06T14:22:46;4.97;;;2.40;;
25915;SDS011;13719;48.188;11.618;2024-01-06T14:25:14;3.90;;;1.90;;
25915;SDS011;13719;48.188;11.618;2024-01-06T14:27:45;2.72;;;2.08;;
25915;SDS011;13719;48.188;11.618;2024-01-06T14:30:13;2.70;;;1.90;;
25915;SDS011;13719;48.188;11.618;2024-01-06T14:32:42;2.75;;;1.92;;
25915;SDS011;13719;48.188;11.618;2024-01-06T14:35:10;2.53;;;1.80;;
25915;SDS011;13719;48.188;11.618;2024-01-06T14:37:42;2.30;;;1.58;;
25915;SDS011;13719;48.188;11.618;2024-01-06T14:40:11;3.90;;;2.67;;
25915;SDS011;13719;48.188;11.618;2024-01-06T14:42:40;3.65;;;1.73;;